Time;durP1;ratioP1;P1;durP2;ratioP2;P2;SDS_P1;SDS_P2;PMS_P1;PMS_P2;Temp;Humidity;BMP_temperature;BMP_pressure;BME280_temperature;BME280_humidity;BME280_pressure;Samples;Min_cycle;Max_cycle;Signal;HPM_P1;HPM_P2
2021/12/04 00:00:21;;;;;;;33.03;19.83;;;;;;;-145.19;100.00;57938.22;5089241;28;20385;-66
2021/12/04 00:02:47;;;;;;;35.03;18.60;;;;;;;-145.19;100.00;57938.22;5089816;28;20303;-66
2021/12/04 00:05:13;;;;;;;32.20;19.53;;;;;;;-145.19;100.00;57938.22;5089561;28;20765;-67
2021/12/04 00:07:39;;;;;;;31.90;19.50;;;;;;;-145.19;100.00;57938.22;5090279;28;20272;-66
2021/12/04 00:10:05;;;;;;;30.93;18.93;;;;;;;-145.19;100.00;57938.22;5089394;28;20082;-66
2021/12/04 00:12:32;;;;;;;34.43;20.00;;;;;;;-145.19;100.00;57938.22;5089291;28;20545;-66
2021/12/04 00:14:59;;;;;;;34.73;18.97;;;;;;;-145.19;100.00;57938.22;5089224;28;20304;-66
2021/12/04 00:17:27;;;;;;;33.90;18.17;;;;;;;-145.19;100.00;57938.22;5089322;28;20776;-66
2021/12/04 00:19:52;;;;;;;31.77;19.87;;;;;;;-145.19;100.00;57938.22;5089177;28;20269;-66
2021/12/04 00:22:18;;;;;;;33.63;19.77;;;;;;;-145.19;100.00;57938.22;5088728;28;20355;-66
2021/12/04 00:24:44;;;;;;;33.27;19.27;;;;;;;-145.19;100.00;57938.22;5090131;28;20047;-66
2021/12/04 00:27:10;;;;;;;35.10;19.83;;;;;;;-145.19;100.00;57938.22;5089085;28;20281;-66
2021/12/04 00:29:35;;;;;;;37.27;20.97;;;;;;;-145.19;100.00;57938.22;5089075;28;20037;-66
2021/12/04 00:32:26;;;;;;;40.20;20.43;;;;;;;-145.19;100.00;57938.22;5089150;28;20032;-66
2021/12/04 00:34:53;;;;;;;42.63;19.70;;;;;;;-145.19;100.00;57938.22;5088357;28;20111;-66
2021/12/04 00:51:00;;;;;;;49.87;23.30;;;;;;;-145.19;100.00;57938.22;5088621;28;20294;-66
2021/12/04 00:53:25;;;;;;;55.17;23.90;;;;;;;-145.19;100.00;57938.22;5088747;28;20253;-67
2021/12/04 00:55:51;;;;;;;48.50;23.80;;;;;;;-145.19;100.00;57938.22;5088884;28;20040;-67
2021/12/04 00:58:16;;;;;;;50.00;22.27;;;;;;;-145.19;100.00;57938.22;5088571;28;20407;-67
2021/12/04 01:00:42;;;;;;;44.70;22.87;;;;;;;-145.19;100.00;57938.22;5088528;28;20046;-67
2021/12/04 01:03:08;;;;;;;54.30;23.57;;;;;;;-145.19;100.00;57938.22;5088253;28;20124;-67
2021/12/04 01:05:34;;;;;;;48.60;22.57;;;;;;;-145.19;100.00;57938.22;5071227;28;20351;-67
2021/12/04 01:07:59;;;;;;;52.70;22.37;;;;;;;-145.19;100.00;57938.22;5088269;28;20415;-67
2021/12/04 01:10:25;;;;;;;51.13;22.20;;;;;;;-145.19;100.00;57938.22;5088334;28;20509;-67
2021/12/04 01:12:50;;;;;;;46.33;20.90;;;;;;;-145.19;100.00;57938.22;5088472;28;20060;-67
2021/12/04 01:15:16;;;;;;;43.93;20.43;;;;;;;-145.19;100.00;57938.22;5087843;28;20036;-67
2021/12/04 01:17:41;;;;;;;59.33;24.33;;;;;;;-145.19;100.00;57938.22;5089001;28;20040;-67
2021/12/04 01:20:07;;;;;;;50.10;24.40;;;;;;;-145.19;100.00;57938.22;5053644;28;20040;-67
2021/12/04 01:22:33;;;;;;;47.90;23.40;;;;;;;-145.19;100.00;57938.22;5087934;28;20048;-67
2021/12/04 01:25:00;;;;;;;50.30;22.10;;;;;;;-145.19;100.00;57938.22;5067033;28;20041;-67
2021/12/04 01:27:25;;;;;;;47.73;22.97;;;;;;;-145.19;100.00;57938.22;5047760;28;20263;-67
2021/12/04 01:29:51;;;;;;;52.87;22.97;;;;;;;-145.19;100.00;57938.22;5048290;28;20368;-67
2021/12/04 01:32:17;;;;;;;53.10;22.63;;;;;;;-145.19;100.00;57938.22;5046924;28;20098;-67
2021/12/04 01:34:42;;;;;;;51.87;23.83;;;;;;;-145.19;100.00;57938.22;5060590;28;20757;-66
2021/12/04 01:37:08;;;;;;;57.50;23.00;;;;;;;-145.19;100.00;57938.22;5067457;28;20447;-66
2021/12/04 01:39:33;;;;;;;51.50;24.40;;;;;;;-145.19;100.00;57938.22;5067658;28;20033;-67
2021/12/04 01:41:59;;;;;;;55.43;23.00;;;;;;;-145.19;100.00;57938.22;5067483;28;20161;-67
2021/12/04 01:44:24;;;;;;;52.53;22.53;;;;;;;-145.19;100.00;57938.22;5069331;28;20040;-67
2021/12/04 01:46:55;;;;;;;63.43;23.93;;;;;;;-145.19;100.00;57938.22;5069256;28;20111;-67
2021/12/04 01:49:22;;;;;;;59.13;24.87;;;;;;;-145.19;100.00;57938.22;5065949;28;20044;-67
2021/12/04 01:51:47;;;;;;;59.30;23.33;;;;;;;-145.19;100.00;57938.22;5069730;28;20269;-67
2021/12/04 01:54:13;;;;;;;58.27;23.70;;;;;;;-145.19;100.00;57938.22;5074292;28;20338;-67
2021/12/04 01:56:38;;;;;;;62.60;24.27;;;;;;;-145.19;100.00;57938.22;5087563;28;20052;-67
2021/12/04 01:59:04;;;;;;;61.43;23.00;;;;;;;-145.19;100.00;57938.22;5087294;28;20036;-67
2021/12/04 02:01:32;;;;;;;54.00;21.63;;;;;;;-145.19;100.00;57938.22;5087685;28;20039;-67
2021/12/04 02:03:57;;;;;;;57.23;22.17;;;;;;;-145.19;100.00;57938.22;5087517;28;20496;-67
2021/12/04 02:06:23;;;;;;;61.17;21.50;;;;;;;-145.19;100.00;57938.22;5088024;28;20387;-67
2021/12/04 02:08:48;;;;;;;62.80;23.00;;;;;;;-145.19;100.00;57938.22;5087520;28;20060;-67
2021/12/04 02:11:13;;;;;;;61.50;23.97;;;;;;;-145.19;100.00;57938.22;5086944;28;20044;-67
2021/12/04 02:13:39;;;;;;;51.33;21.53;;;;;;;-145.19;100.00;57938.22;5069349;28;20084;-67
2021/12/04 02:16:18;;;;;;;48.67;21.23;;;;;;;-145.19;100.00;57938.22;5086947;28;20032;-67
2021/12/04 02:18:44;;;;;;;57.43;22.67;;;;;;;-145.19;100.00;57938.22;5087503;28;20556;-67
2021/12/04 02:21:10;;;;;;;49.93;21.93;;;;;;;-145.19;100.00;57938.22;5087020;28;20633;-67
2021/12/04 02:23:36;;;;;;;62.37;25.43;;;;;;;-145.19;100.00;57938.22;5086850;28;20280;-67
2021/12/04 02:26:01;;;;;;;50.47;24.00;;;;;;;-145.19;100.00;57938.22;5087159;28;20040;-67
2021/12/04 02:28:27;;;;;;;57.87;22.50;;;;;;;-145.19;100.00;57938.22;5087806;28;20040;-67
2021/12/04 02:30:52;;;;;;;65.30;22.37;;;;;;;-145.19;100.00;57938.22;5087026;28;20044;-67
2021/12/04 02:33:18;;;;;;;61.30;24.93;;;;;;;-145.19;100.00;57938.22;5068645;28;20492;-67
2021/12/04 02:35:49;;;;;;;64.97;25.07;;;;;;;-145.19;100.00;57938.22;5069112;28;20127;-67
2021/12/04 02:38:17;;;;;;;57.87;23.53;;;;;;;-145.19;100.00;57938.22;5086507;28;20047;-67
2021/12/04 02:40:43;;;;;;;62.10;23.80;;;;;;;-145.19;100.00;57938.22;5086991;28;20745;-67
2021/12/04 02:43:09;;;;;;;59.63;24.40;;;;;;;-145.19;100.00;57938.22;5086487;28;20344;-67
2021/12/04 02:45:34;;;;;;;60.17;23.57;;;;;;;-145.19;100.00;57938.22;5086817;28;20694;-67
2021/12/04 02:48:00;;;;;;;53.30;23.23;;;;;;;-145.19;100.00;57938.22;5087283;28;20459;-66
2021/12/04 02:50:25;;;;;;;53.50;22.70;;;;;;;-145.19;100.00;57938.22;5087060;28;20044;-67
2021/12/04 02:52:50;;;;;;;58.73;23.97;;;;;;;-145.19;100.00;57938.22;5086491;28;20040;-66
2021/12/04 02:55:17;;;;;;;63.57;23.70;;;;;;;-145.19;100.00;57938.22;5086536;28;20048;-67
2021/12/04 02:57:44;;;;;;;52.50;22.70;;;;;;;-145.19;100.00;57938.22;5086840;28;20164;-67
2021/12/04 03:00:15;;;;;;;57.63;23.93;;;;;;;-145.19;100.00;57938.22;5086910;28;20281;-67
2021/12/04 03:02:40;;;;;;;53.63;24.00;;;;;;;-145.19;100.00;57938.22;5086482;28;20276;-67
2021/12/04 03:05:09;;;;;;;52.53;22.83;;;;;;;-145.19;100.00;57938.22;5086881;28;20653;-67
2021/12/04 03:07:34;;;;;;;53.37;22.27;;;;;;;-145.19;100.00;57938.22;5087053;28;20040;-67
2021/12/04 03:10:00;;;;;;;50.83;22.30;;;;;;;-145.19;100.00;57938.22;5086351;28;20626;-67
2021/12/04 03:12:26;;;;;;;52.20;22.47;;;;;;;-145.19;100.00;57938.22;5086577;28;20155;-67
2021/12/04 03:14:53;;;;;;;51.23;24.00;;;;;;;-145.19;100.00;57938.22;5086558;28;20036;-67
2021/12/04 03:17:20;;;;;;;57.10;23.37;;;;;;;-145.19;100.00;57938.22;5068408;28;20436;-67
2021/12/04 03:19:49;;;;;;;56.37;24.23;;;;;;;-145.19;100.00;57938.22;5086479;28;20670;-67
2021/12/04 03:22:15;;;;;;;56.03;24.00;;;;;;;-145.19;100.00;57938.22;5086411;28;20280;-68
2021/12/04 03:24:42;;;;;;;47.83;21.93;;;;;;;-145.19;100.00;57938.22;5086920;28;20297;-67
2021/12/04 03:27:08;;;;;;;50.47;23.40;;;;;;;-145.19;100.00;57938.22;5086217;28;20292;-67
2021/12/04 03:29:39;;;;;;;56.07;23.67;;;;;;;-145.19;100.00;57938.22;5086312;28;20297;-67
2021/12/04 03:42:41;;;;;;;57.77;23.27;;;;;;;-145.19;100.00;57938.22;5086703;28;20257;-67
2021/12/04 03:45:08;;;;;;;51.50;23.90;;;;;;;-145.19;100.00;57938.22;5086141;28;20363;-67
2021/12/04 03:47:37;;;;;;;53.10;24.00;;;;;;;-145.19;100.00;57938.22;5086217;28;20337;-67
2021/12/04 03:50:03;;;;;;;54.20;23.30;;;;;;;-145.19;100.00;57938.22;5086075;28;20272;-67
2021/12/04 03:52:28;;;;;;;58.70;24.20;;;;;;;-145.19;100.00;57938.22;5086427;28;20269;-67
2021/12/04 03:54:53;;;;;;;62.63;24.53;;;;;;;-145.19;100.00;57938.22;5086090;28;20048;-67
2021/12/04 03:57:19;;;;;;;64.30;25.13;;;;;;;-145.19;100.00;57938.22;5089648;28;20055;-67
2021/12/04 03:59:47;;;;;;;60.13;25.67;;;;;;;-145.19;100.00;57938.22;5072338;28;20127;-67
2021/12/04 04:02:17;;;;;;;69.60;26.57;;;;;;;-145.19;100.00;57938.22;5089775;28;20044;-67
2021/12/04 04:04:44;;;;;;;64.37;25.73;;;;;;;-145.19;100.00;57938.22;5089801;28;20269;-67
2021/12/04 04:07:09;;;;;;;61.23;25.50;;;;;;;-145.19;100.00;57938.22;5089478;28;20792;-67
2021/12/04 04:09:35;;;;;;;73.80;26.97;;;;;;;-145.19;100.00;57938.22;5089668;28;20265;-67
2021/12/04 04:12:01;;;;;;;56.60;24.00;;;;;;;-145.19;100.00;57938.22;5089386;28;20050;-67
2021/12/04 04:14:27;;;;;;;60.03;25.50;;;;;;;-145.19;100.00;57938.22;5089389;28;20356;-68
2021/12/04 04:16:55;;;;;;;72.17;26.30;;;;;;;-145.19;100.00;57938.22;5089742;28;20355;-68
2021/12/04 04:19:21;;;;;;;66.43;26.53;;;;;;;-145.19;100.00;57938.22;5071534;28;20547;-67
2021/12/04 04:21:47;;;;;;;59.63;24.83;;;;;;;-145.19;100.00;57938.22;5089501;28;20379;-67
2021/12/04 04:24:15;;;;;;;64.47;26.17;;;;;;;-145.19;100.00;57938.22;5089241;28;20641;-67
2021/12/04 04:26:43;;;;;;;73.10;25.00;;;;;;;-145.19;100.00;57938.22;5089361;28;20316;-67
2021/12/04 04:29:09;;;;;;;63.47;26.93;;;;;;;-145.19;100.00;57938.22;5071070;28;20265;-67
2021/12/04 04:31:37;;;;;;;68.87;27.83;;;;;;;-145.19;100.00;57938.22;5089547;28;20276;-67
2021/12/04 04:34:06;;;;;;;78.00;27.97;;;;;;;-145.19;100.00;57938.22;5088757;28;20507;-67
2021/12/04 04:58:44;;;;;;;70.93;25.17;;;;;;;-145.19;100.00;57938.22;5088765;28;20818;-67
2021/12/04 05:01:20;;;;;;;73.13;27.23;;;;;;;-145.19;100.00;57938.22;5088854;28;20280;-67
2021/12/04 05:12:19;;;;;;;78.77;27.07;;;;;;;-145.19;100.00;57938.22;5088415;28;20272;-67
2021/12/04 05:14:49;;;;;;;90.23;28.43;;;;;;;-145.19;100.00;57938.22;5088668;28;20828;-67
2021/12/04 05:17:27;;;;;;;83.83;28.43;;;;;;;-145.19;100.00;57938.22;5088199;28;20269;-67
2021/12/04 05:19:54;;;;;;;80.37;28.50;;;;;;;-145.19;100.00;57938.22;5088639;28;20260;-67
2021/12/04 05:22:20;;;;;;;84.00;28.80;;;;;;;-145.19;100.00;57938.22;5088162;28;20272;-67
2021/12/04 05:24:46;;;;;;;79.57;29.40;;;;;;;-145.19;100.00;57938.22;5088105;28;20273;-67
2021/12/04 05:27:12;;;;;;;69.63;27.40;;;;;;;-145.19;100.00;57938.22;5087867;28;20606;-67
2021/12/04 05:29:38;;;;;;;70.67;26.90;;;;;;;-145.19;100.00;57938.22;5088043;28;20115;-67
2021/12/04 05:32:05;;;;;;;72.70;26.93;;;;;;;-145.19;100.00;57938.22;5067212;28;20262;-67
2021/12/04 05:34:31;;;;;;;80.03;28.03;;;;;;;-145.19;100.00;57938.22;5062207;28;20415;-67
2021/12/04 05:36:57;;;;;;;67.13;27.17;;;;;;;-145.19;100.00;57938.22;5070986;28;20334;-67
2021/12/04 05:39:22;;;;;;;74.03;26.13;;;;;;;-145.19;100.00;57938.22;5041828;28;20288;-67
2021/12/04 05:41:48;;;;;;;91.50;29.93;;;;;;;-145.19;100.00;57938.22;5080776;28;20552;-67
2021/12/04 05:44:16;;;;;;;98.40;29.10;;;;;;;-145.19;100.00;57938.22;5087485;28;20048;-67
2021/12/04 05:49:35;;;;;;;79.53;27.27;;;;;;;-145.19;100.00;57938.22;5087287;28;20305;-67
2021/12/04 05:57:11;;;;;;;97.53;27.20;;;;;;;-145.19;100.00;57938.22;5087409;28;20304;-67
2021/12/04 05:59:37;;;;;;;104.70;29.07;;;;;;;-145.19;100.00;57938.22;5087216;28;20277;-67
2021/12/04 06:02:03;;;;;;;106.53;26.53;;;;;;;-145.19;100.00;57938.22;5086493;28;20297;-67
2021/12/04 06:04:28;;;;;;;104.80;27.93;;;;;;;-145.19;100.00;57938.22;5087338;28;20261;-67
2021/12/04 06:06:54;;;;;;;114.43;27.50;;;;;;;-145.19;100.00;57938.22;5087670;28;20850;-68
2021/12/04 06:09:20;;;;;;;104.93;27.13;;;;;;;-145.19;100.00;57938.22;5086976;28;20066;-67
2021/12/04 06:11:46;;;;;;;94.50;25.67;;;;;;;-145.19;100.00;57938.22;5087657;28;20043;-67
2021/12/04 06:14:12;;;;;;;94.93;25.53;;;;;;;-145.19;100.00;57938.22;5087179;28;20288;-67
2021/12/04 06:16:37;;;;;;;87.83;25.10;;;;;;;-145.19;100.00;57938.22;5087095;28;20610;-67
2021/12/04 06:19:24;;;;;;;99.60;26.77;;;;;;;-145.19;100.00;57938.22;5086698;28;20532;-67
2021/12/04 06:24:34;;;;;;;87.43;25.87;;;;;;;-145.19;100.00;57938.22;5083641;28;20337;-67
2021/12/04 06:26:59;;;;;;;94.53;25.00;;;;;;;-145.19;100.00;57938.22;5073747;28;20273;-67
2021/12/04 06:29:25;;;;;;;100.27;26.83;;;;;;;-145.19;100.00;57938.22;5066352;28;20606;-67
2021/12/04 06:31:50;;;;;;;97.20;24.63;;;;;;;-145.19;100.00;57938.22;5066270;28;20037;-68
2021/12/04 06:34:16;;;;;;;107.23;25.97;;;;;;;-145.19;100.00;57938.22;5066426;28;20151;-67
2021/12/04 06:36:41;;;;;;;97.53;25.83;;;;;;;-145.19;100.00;57938.22;5067659;28;20040;-67
2021/12/04 06:39:09;;;;;;;88.20;25.33;;;;;;;-145.19;100.00;57938.22;5066545;28;20033;-67
2021/12/04 06:41:34;;;;;;;105.87;26.40;;;;;;;-145.19;100.00;57938.22;5066698;28;20045;-67
2021/12/04 06:44:00;;;;;;;112.13;28.30;;;;;;;-145.19;100.00;57938.22;5066239;28;20792;-67
2021/12/04 06:46:26;;;;;;;96.47;28.23;;;;;;;-145.19;100.00;57938.22;5066986;28;20036;-68
2021/12/04 06:49:02;;;;;;;119.03;28.93;;;;;;;-145.19;100.00;57938.22;5066360;28;20041;-68
2021/12/04 06:51:37;;;;;;;127.60;27.97;;;;;;;-145.19;100.00;57938.22;5066820;28;20418;-67
2021/12/04 06:54:15;;;;;;;92.97;28.92;;;;;;;-145.19;100.00;57938.22;5071695;28;20273;-67
2021/12/04 06:56:43;;;;;;;116.87;29.97;;;;;;;-145.19;100.00;57938.22;5086605;28;20070;-67
2021/12/04 06:59:13;;;;;;;136.77;31.70;;;;;;;-145.19;100.00;57938.22;5086396;28;20280;-67
2021/12/04 07:01:40;;;;;;;132.33;28.23;;;;;;;-145.19;100.00;57938.22;5086473;28;20277;-67
2021/12/04 07:04:07;;;;;;;159.93;30.97;;;;;;;-145.19;100.00;57938.22;5086153;28;20284;-67
2021/12/04 07:06:32;;;;;;;122.77;29.50;;;;;;;-145.19;100.00;57938.22;5085726;28;20780;-67
2021/12/04 07:08:58;;;;;;;120.53;28.23;;;;;;;-145.19;100.00;57938.22;5084971;28;20280;-67
2021/12/04 07:11:25;;;;;;;104.83;30.67;;;;;;;-145.19;100.00;57938.22;5065280;28;20040;-68
2021/12/04 07:13:50;;;;;;;112.40;27.90;;;;;;;-145.19;100.00;57938.22;5069256;28;20040;-67
2021/12/04 07:16:18;;;;;;;108.10;29.70;;;;;;;-145.19;100.00;57938.22;5083573;28;20614;-67
2021/12/04 07:18:43;;;;;;;133.00;29.13;;;;;;;-145.19;100.00;57938.22;5066402;28;20040;-67
2021/12/04 07:21:09;;;;;;;95.53;29.57;;;;;;;-145.19;100.00;57938.22;5060976;28;20828;-68
2021/12/04 07:23:35;;;;;;;107.33;26.63;;;;;;;-145.19;100.00;57938.22;5076290;28;20044;-67
2021/12/04 07:26:01;;;;;;;101.60;28.23;;;;;;;-145.19;100.00;57938.22;5084735;28;20048;-67
2021/12/04 07:28:26;;;;;;;135.27;30.87;;;;;;;-145.19;100.00;57938.22;5085923;28;20683;-68
2021/12/04 07:30:52;;;;;;;101.13;29.27;;;;;;;-145.19;100.00;57938.22;5088484;28;20044;-67
2021/12/04 07:33:18;;;;;;;105.53;29.37;;;;;;;-145.19;100.00;57938.22;5088800;28;20036;-67
2021/12/04 07:35:43;;;;;;;126.20;28.97;;;;;;;-145.19;100.00;57938.22;5087912;28;20773;-67
2021/12/04 07:38:10;;;;;;;101.20;28.40;;;;;;;-145.19;100.00;57938.22;5089172;28;20085;-67
2021/12/04 07:40:38;;;;;;;137.47;30.17;;;;;;;-145.19;100.00;57938.22;5070369;28;20048;-67
2021/12/04 07:43:03;;;;;;;133.93;30.03;;;;;;;-145.19;100.00;57938.22;5086321;28;20340;-68
2021/12/04 07:45:28;;;;;;;125.53;30.33;;;;;;;-145.19;100.00;57938.22;5089009;28;20644;-68
2021/12/04 07:47:54;;;;;;;121.73;29.17;;;;;;;-145.19;100.00;57938.22;5082642;28;20059;-67
2021/12/04 07:50:19;;;;;;;118.40;28.07;;;;;;;-145.19;100.00;57938.22;5051277;28;20561;-68
2021/12/04 07:52:45;;;;;;;140.40;29.83;;;;;;;-145.19;100.00;57938.22;5079044;28;20032;-67
2021/12/04 07:55:11;;;;;;;142.53;31.87;;;;;;;-145.19;100.00;57938.22;5082135;28;20047;-67
2021/12/04 07:57:37;;;;;;;143.33;31.43;;;;;;;-145.19;100.00;57938.22;5080257;28;20036;-68
2021/12/04 08:00:06;;;;;;;126.60;29.93;;;;;;;-145.19;100.00;57938.22;5082774;28;20279;-68
2021/12/04 08:02:31;;;;;;;125.10;32.60;;;;;;;-145.19;100.00;57938.22;5082776;28;20515;-68
2021/12/04 08:04:57;;;;;;;143.80;32.50;;;;;;;-145.19;100.00;57938.22;5088777;28;20265;-68
2021/12/04 08:07:22;;;;;;;116.90;29.47;;;;;;;-145.19;100.00;57938.22;5068547;28;20040;-68
2021/12/04 08:09:47;;;;;;;128.27;28.87;;;;;;;-145.19;100.00;57938.22;5068655;28;20036;-68
2021/12/04 08:12:13;;;;;;;102.10;29.13;;;;;;;-145.19;100.00;57938.22;5069188;28;20049;-68
2021/12/04 08:14:39;;;;;;;109.90;26.57;;;;;;;-145.19;100.00;57938.22;5068531;28;20497;-68
2021/12/04 08:17:05;;;;;;;108.77;26.07;;;;;;;-145.19;100.00;57938.22;5068810;28;20048;-67
2021/12/04 08:19:31;;;;;;;110.93;26.33;;;;;;;-145.19;100.00;57938.22;5069085;28;20049;-68
2021/12/04 08:21:56;;;;;;;124.20;26.47;;;;;;;-145.19;100.00;57938.22;5067965;28;20595;-67
2021/12/04 08:24:21;;;;;;;115.93;27.00;;;;;;;-145.19;100.00;57938.22;5067372;28;20040;-68
2021/12/04 08:26:47;;;;;;;102.60;27.00;;;;;;;-145.19;100.00;57938.22;5068368;28;20041;-67
2021/12/04 08:29:13;;;;;;;108.47;27.73;;;;;;;-145.19;100.00;57938.22;5049861;28;20044;-68
2021/12/04 08:31:39;;;;;;;100.63;25.90;;;;;;;-145.19;100.00;57938.22;5068896;28;20035;-67
2021/12/04 08:34:04;;;;;;;86.43;24.73;;;;;;;-145.19;100.00;57938.22;5068131;28;20376;-67
2021/12/04 08:36:32;;;;;;;100.30;28.03;;;;;;;-145.19;100.00;57938.22;5070425;28;20274;-68
2021/12/04 08:38:58;;;;;;;111.90;26.47;;;;;;;-145.19;100.00;57938.22;5066340;28;20499;-67
2021/12/04 08:41:24;;;;;;;100.67;26.90;;;;;;;-145.19;100.00;57938.22;5071006;28;20296;-67
2021/12/04 08:43:49;;;;;;;105.40;27.83;;;;;;;-145.19;100.00;57938.22;5071088;28;20801;-68
2021/12/04 08:46:19;;;;;;;122.70;27.40;;;;;;;-145.19;100.00;57938.22;5050538;28;20588;-68
2021/12/04 08:48:45;;;;;;;96.93;26.60;;;;;;;-145.19;100.00;57938.22;5068888;28;20090;-68
2021/12/04 08:51:10;;;;;;;111.57;27.47;;;;;;;-145.19;100.00;57938.22;5068824;28;20270;-67
2021/12/04 08:53:36;;;;;;;124.13;28.90;;;;;;;-145.19;100.00;57938.22;5080772;28;20131;-67
2021/12/04 08:56:01;;;;;;;108.33;27.00;;;;;;;-145.19;100.00;57938.22;5074912;28;20044;-68
2021/12/04 08:58:27;;;;;;;111.73;27.87;;;;;;;-145.19;100.00;57938.22;5088427;28;20048;-67
2021/12/04 09:00:59;;;;;;;108.13;28.60;;;;;;;-145.19;100.00;57938.22;5085857;28;20044;-68
2021/12/04 09:03:37;;;;;;;96.53;28.00;;;;;;;-145.19;100.00;57938.22;5072696;28;20044;-68
2021/12/04 09:06:04;;;;;;;103.73;28.70;;;;;;;-145.19;100.00;57938.22;5066520;28;20270;-68
2021/12/04 09:08:30;;;;;;;106.33;26.53;;;;;;;-145.19;100.00;57938.22;5067631;28;20274;-68
2021/12/04 09:11:00;;;;;;;118.20;29.13;;;;;;;-145.19;100.00;57938.22;5067622;28;20789;-67
2021/12/04 09:13:28;;;;;;;113.20;26.90;;;;;;;-145.19;100.00;57938.22;5070178;28;20360;-68
2021/12/04 09:15:54;;;;;;;120.50;29.17;;;;;;;-145.19;100.00;57938.22;5066627;28;20540;-68
2021/12/04 09:18:20;;;;;;;107.17;27.73;;;;;;;-145.19;100.00;57938.22;5067456;28;20292;-67
2021/12/04 09:20:47;;;;;;;103.03;27.43;;;;;;;-145.19;100.00;57938.22;5050112;28;20729;-67
2021/12/04 09:23:18;;;;;;;117.73;28.67;;;;;;;-145.19;100.00;57938.22;5067784;28;20392;-67
2021/12/04 09:25:48;;;;;;;103.77;27.77;;;;;;;-145.19;100.00;57938.22;5074923;28;20792;-68
2021/12/04 10:06:30;;;;;;;81.87;25.93;;;;;;;-145.19;100.00;57938.22;5065293;28;20276;-67
2021/12/04 10:22:47;;;;;;;77.17;22.80;;;;;;;-145.19;100.00;57938.22;5061288;28;20323;-67
2021/12/04 10:33:43;;;;;;;61.17;22.20;;;;;;;-145.19;100.00;57938.22;5083839;28;20280;-67
2021/12/04 10:36:10;;;;;;;62.83;23.53;;;;;;;-145.19;100.00;57938.22;5078700;28;20284;-67
2021/12/04 10:38:42;;;;;;;67.83;23.30;;;;;;;-145.19;100.00;57938.22;5066235;28;21011;-67
2021/12/04 10:41:09;;;;;;;62.80;24.87;;;;;;;-145.19;100.00;57938.22;5065951;28;21021;-67
2021/12/04 10:43:36;;;;;;;51.17;21.07;;;;;;;-145.19;100.00;57938.22;5066164;28;20923;-67
2021/12/04 10:46:14;;;;;;;61.20;20.47;;;;;;;-145.19;100.00;57938.22;5066119;28;20765;-67
2021/12/04 10:48:48;;;;;;;59.40;21.47;;;;;;;-145.19;100.00;57938.22;5066023;28;20762;-67
2021/12/04 10:53:50;;;;;;;61.77;23.17;;;;;;;-145.19;100.00;57938.22;5066304;28;20789;-67
2021/12/04 10:59:30;;;;;;;52.07;19.83;;;;;;;-145.19;100.00;57938.22;5041278;28;20268;-67
2021/12/04 11:21:10;;;;;;;45.00;18.80;;;;;;;-145.19;100.00;57938.22;5089886;28;20272;-67
2021/12/04 11:26:07;;;;;;;44.60;18.70;;;;;;;-145.19;100.00;57938.22;5089494;28;20597;-67
2021/12/04 11:35:06;;;;;;;37.13;17.33;;;;;;;-145.19;100.00;57938.22;5089376;28;20803;-67
2021/12/04 11:37:06;;;;;;;34.20;16.63;;;;;;;-145.19;100.00;57938.22;5089503;28;20279;-67
2021/12/04 11:44:50;;;;;;;38.83;16.33;;;;;;;-145.19;100.00;57938.22;5089696;28;20372;-67
2021/12/04 11:47:16;;;;;;;34.87;16.40;;;;;;;-145.19;100.00;57938.22;5089286;28;20265;-67
2021/12/04 11:49:41;;;;;;;36.57;16.93;;;;;;;-145.19;100.00;57938.22;5086136;28;20841;-67
2021/12/04 11:52:19;;;;;;;41.57;16.47;;;;;;;-145.19;100.00;57938.22;5089263;28;20292;-67
2021/12/04 11:55:00;;;;;;;37.53;16.07;;;;;;;-145.19;100.00;57938.22;5089739;28;20630;-67
2021/12/04 11:57:32;;;;;;;39.63;16.17;;;;;;;-145.19;100.00;57938.22;5087366;28;20811;-67
2021/12/04 12:00:10;;;;;;;41.03;16.70;;;;;;;-145.19;100.00;57938.22;5085831;28;20390;-67
2021/12/04 12:02:35;;;;;;;36.90;17.13;;;;;;;-145.19;100.00;57938.22;5085382;28;20292;-67
2021/12/04 12:05:01;;;;;;;40.50;16.70;;;;;;;-145.19;100.00;57938.22;5069934;28;20741;-67
2021/12/04 12:07:30;;;;;;;38.37;16.60;;;;;;;-145.19;100.00;57938.22;5088913;28;20066;-67
2021/12/04 12:10:11;;;;;;;44.57;16.93;;;;;;;-145.19;100.00;57938.22;5088797;28;20078;-67
2021/12/04 12:12:39;;;;;;;43.23;18.10;;;;;;;-145.19;100.00;57938.22;5089120;28;20701;-67
2021/12/04 12:15:50;;;;;;;48.53;18.80;;;;;;;-145.19;100.00;57938.22;5088596;28;20287;-67
2021/12/04 12:18:19;;;;;;;45.80;19.83;;;;;;;-145.19;100.00;57938.22;5069654;28;20272;-67
2021/12/04 12:20:58;;;;;;;55.73;20.37;;;;;;;-145.19;100.00;57938.22;5089041;28;20264;-67
2021/12/04 12:23:27;;;;;;;51.83;19.90;;;;;;;-145.19;100.00;57938.22;5088794;28;20268;-67
2021/12/04 12:26:16;;;;;;;59.10;21.33;;;;;;;-145.19;100.00;57938.22;5087151;28;20773;-67
2021/12/04 12:37:16;;;;;;;62.23;22.40;;;;;;;-145.19;100.00;57938.22;5073464;28;20296;-67
2021/12/04 12:39:58;;;;;;;64.37;23.90;;;;;;;-145.19;100.00;57938.22;5067874;28;20277;-67
2021/12/04 12:42:27;;;;;;;70.17;24.00;;;;;;;-145.19;100.00;57938.22;5068858;28;20257;-67
2021/12/04 12:44:53;;;;;;;71.60;24.40;;;;;;;-145.19;100.00;57938.22;5068196;28;20281;-67
2021/12/04 12:47:21;;;;;;;60.00;22.37;;;;;;;-145.19;100.00;57938.22;5067537;28;20332;-67
2021/12/04 12:49:48;;;;;;;53.30;21.87;;;;;;;-145.19;100.00;57938.22;5068313;28;20051;-67
2021/12/04 12:52:18;;;;;;;61.23;22.83;;;;;;;-145.19;100.00;57938.22;5068377;28;20837;-67
2021/12/04 12:54:51;;;;;;;63.07;23.23;;;;;;;-145.19;100.00;57938.22;5068608;28;20273;-67
2021/12/04 12:57:25;;;;;;;59.10;24.27;;;;;;;-145.19;100.00;57938.22;5068123;28;20647;-67
2021/12/04 13:11:46;;;;;;;53.60;20.40;;;;;;;-145.19;100.00;57938.22;5087895;28;20334;-68
2021/12/04 13:14:22;;;;;;;55.20;23.63;;;;;;;-145.19;100.00;57938.22;5088346;28;20328;-67
2021/12/04 13:17:04;;;;;;;50.95;22.10;;;;;;;-145.19;100.00;57938.22;5088516;28;20296;-67
2021/12/04 13:19:31;;;;;;;47.07;23.97;;;;;;;-145.19;100.00;57938.22;5088332;28;20101;-68
2021/12/04 13:22:02;;;;;;;48.03;22.53;;;;;;;-145.19;100.00;57938.22;5087358;28;20280;-68
2021/12/04 13:24:31;;;;;;;47.43;21.80;;;;;;;-145.19;100.00;57938.22;5088222;28;20784;-67
2021/12/04 13:26:57;;;;;;;45.90;21.87;;;;;;;-145.19;100.00;57938.22;5087872;28;20272;-67
2021/12/04 13:29:26;;;;;;;42.77;21.53;;;;;;;-145.19;100.00;57938.22;5078999;28;20788;-67
2021/12/04 13:31:57;;;;;;;45.20;20.53;;;;;;;-145.19;100.00;57938.22;5067123;28;20366;-67
2021/12/04 13:34:28;;;;;;;45.70;21.33;;;;;;;-145.19;100.00;57938.22;5066893;28;20309;-68
2021/12/04 13:36:54;;;;;;;43.43;20.63;;;;;;;-145.19;100.00;57938.22;5069697;28;20708;-68
2021/12/04 13:39:20;;;;;;;50.77;24.33;;;;;;;-145.19;100.00;57938.22;5065758;28;20296;-68
2021/12/04 13:41:47;;;;;;;39.10;19.10;;;;;;;-145.19;100.00;57938.22;5066038;28;20262;-67
2021/12/04 13:44:16;;;;;;;38.43;18.23;;;;;;;-145.19;100.00;57938.22;5066667;28;20289;-68
2021/12/04 13:46:51;;;;;;;32.57;15.70;;;;;;;-145.19;100.00;57938.22;5069723;28;20273;-68
2021/12/04 13:49:23;;;;;;;28.17;15.43;;;;;;;-145.19;100.00;57938.22;5070597;28;20273;-67
2021/12/04 13:51:54;;;;;;;22.23;10.90;;;;;;;-145.19;100.00;57938.22;5051514;28;20032;-67
2021/12/04 13:54:21;;;;;;;25.27;10.70;;;;;;;-145.19;100.00;57938.22;5067118;28;20277;-67
2021/12/04 13:56:47;;;;;;;20.17;8.40;;;;;;;-145.19;100.00;57938.22;5080156;28;20745;-67
2021/12/04 13:59:14;;;;;;;18.73;6.60;;;;;;;-145.19;100.00;57938.22;5087238;28;20268;-66